Western King — CY7367 — position and weather

sailwx.info

Track history (hours):
 
Tides and Currents Weather Stations Pressure Air Temp Water Temp Dewpoint Dewpoint Depression Visibility Wind Speed Wind Dir Waves Ship Positions

Western King

Last reported at 2014-Oct-08 14:28 UTC. Time now 2014-Oct-30 16:43 UTC.
Position N 49°12' W 123°05'.
Warning: this ship's position is 22 days out of date.

Length 23 m; draft 3.8 m.

Type: Fishing. MMSI: 316003779.

Date/timePositionNaut miles runAvg speedWind from/ knotsBaromVisibWave heightAir tempDewpointWater temp
2014-Oct-08 14:28N 49°12' W 123°05'0 0.0
2014-Oct-08 13:31N 49°12' W 123°05'0 0.0
2014-Oct-08 12:34N 49°12' W 123°05'0 0.0
2014-Oct-08 11:28N 49°12' W 123°05'0 0.0
2014-Oct-08 10:28N 49°12' W 123°05'0 0.0
2014-Oct-08 09:28N 49°12' W 123°05'0 0.0
2014-Oct-08 08:22N 49°12' W 123°05'0 0.0
2014-Oct-08 07:31N 49°12' W 123°05'0 0.0
2014-Oct-08 06:31N 49°12' W 123°05'0 0.0
2014-Oct-08 05:31N 49°12' W 123°05'0 0.0
2014-Oct-08 04:34N 49°12' W 123°05'0 0.0
2014-Oct-08 03:34N 49°12' W 123°05'0 0.0
2014-Oct-08 02:31N 49°12' W 123°05'0 0.0
2014-Oct-08 01:34N 49°12' W 123°05'0 0.0
2014-Oct-08 00:34N 49°12' W 123°05'0 0.0
2014-Oct-07 23:31N 49°12' W 123°05'0 0.4
2014-Oct-07 22:31N 49°12' W 123°06'0 0.0
2014-Oct-07 21:31N 49°12' W 123°06'0 0.0
2014-Oct-07 20:28N 49°12' W 123°06'6 6.2
2014-Oct-07 19:33N 49°14' W 123°14'9 8.6
2014-Oct-07 18:33N 49°18' W 123°26'9 8.7
2014-Oct-07 17:33N 49°21' W 123°38'9 8.6
2014-Oct-07 16:33N 49°24' W 123°51'9 9.0
2014-Oct-07 15:33N 49°28' W 124°03'9 8.8
2014-Oct-07 14:33N 49°32' W 124°15'9 8.5
2014-Oct-07 13:33N 49°36' W 124°27'9 8.9
2014-Oct-07 12:33N 49°41' W 124°38'8 8.4
2014-Oct-07 11:33N 49°46' W 124°49'8 8.2
2014-Oct-07 10:31N 49°51' W 124°59'8 8.4
2014-Oct-07 09:31N 49°57' W 125°09'7 6.2
2014-Oct-07 08:27N 50°02' W 125°15'5 2.2
2014-Oct-07 06:22N 50°06' W 125°18'8 9.0
2014-Oct-07 05:27N 50°14' W 125°23'1 0.0
2014-Oct-06 00:33N 50°15' W 125°24'  
Track history (hours):
 
Tides and Currents Weather Stations Pressure Air Temp Water Temp Dewpoint Dewpoint Depression Visibility Wind Speed Wind Dir Waves Ship Positions

Western King

Last reported at 2014-Oct-08 14:28 UTC. Time now 2014-Oct-30 16:43 UTC.
Position N 49°12' W 123°05'.
Warning: this ship's position is 22 days out of date.

Length 23 m; draft 3.8 m.

Type: Fishing. MMSI: 316003779.

Date/timePositionNaut miles runAvg speedWind from/ knotsBaromVisibWave heightAir tempDewpointWater temp
2014-Oct-08 14:28N 49°12' W 123°05'0 0.0
2014-Oct-08 13:31N 49°12' W 123°05'0 0.0
2014-Oct-08 12:34N 49°12' W 123°05'0 0.0
2014-Oct-08 11:28N 49°12' W 123°05'0 0.0
2014-Oct-08 10:28N 49°12' W 123°05'0 0.0
2014-Oct-08 09:28N 49°12' W 123°05'0 0.0
2014-Oct-08 08:22N 49°12' W 123°05'0 0.0
2014-Oct-08 07:31N 49°12' W 123°05'0 0.0
2014-Oct-08 06:31N 49°12' W 123°05'0 0.0
2014-Oct-08 05:31N 49°12' W 123°05'0 0.0
2014-Oct-08 04:34N 49°12' W 123°05'0 0.0
2014-Oct-08 03:34N 49°12' W 123°05'0 0.0
2014-Oct-08 02:31N 49°12' W 123°05'0 0.0
2014-Oct-08 01:34N 49°12' W 123°05'0 0.0
2014-Oct-08 00:34N 49°12' W 123°05'0 0.0
2014-Oct-07 23:31N 49°12' W 123°05'0 0.4
2014-Oct-07 22:31N 49°12' W 123°06'0 0.0
2014-Oct-07 21:31N 49°12' W 123°06'0 0.0
2014-Oct-07 20:28N 49°12' W 123°06'6 6.2
2014-Oct-07 19:33N 49°14' W 123°14'9 8.6
2014-Oct-07 18:33N 49°18' W 123°26'9 8.7
2014-Oct-07 17:33N 49°21' W 123°38'9 8.6
2014-Oct-07 16:33N 49°24' W 123°51'9 9.0
2014-Oct-07 15:33N 49°28' W 124°03'9 8.8
2014-Oct-07 14:33N 49°32' W 124°15'9 8.5
2014-Oct-07 13:33N 49°36' W 124°27'9 8.9
2014-Oct-07 12:33N 49°41' W 124°38'8 8.4
2014-Oct-07 11:33N 49°46' W 124°49'8 8.2
2014-Oct-07 10:31N 49°51' W 124°59'8 8.4
2014-Oct-07 09:31N 49°57' W 125°09'7 6.2
2014-Oct-07 08:27N 50°02' W 125°15'5 2.2
2014-Oct-07 06:22N 50°06' W 125°18'8 9.0
2014-Oct-07 05:27N 50°14' W 125°23'1 0.0
2014-Oct-06 00:33N 50°15' W 125°24'  

Dump ship's entire track history